Site contains unofficial IBTrACS data. Visit the IBTrACS Website to access archived data.

1885 NOT_NAMED (1885052S14070)


IBTrACS version v04r00. Visit IBTrACS website for data access.
Please direct all questions to the IBTrACS Q and A forum

Storm track - Intensity - Wind Radii - Intensity Data - Source Data - All data

Summary Information

Storm ID 1885052S14070
Start Feb 21 06Z
End Mar 1 06Z
ATCF IDs
Track status Best track data.

Storm track plot

Map of storm track

Intensity plots

No Intensity information for this storm


Radial wind information

No radial wind information for this storm


Position and Intensity Table

BASIN ISO_TIME_________ NATURE LAT LON
degrees north degrees east
SI 1885-02-21 06:00:00 NR -13.60 70.40
SI 09:00:00 NR -13.76 70.26
SI 12:00:00 NR -13.92 70.11
SI 15:00:00 NR -14.07 69.97
SI 18:00:00 NR -14.17 69.92
SI 21:00:00 NR -14.33 69.79
SI 1885-02-22 00:00:00 NR -14.53 69.63
SI 03:00:00 NR -14.74 69.45
SI 06:00:00 NR -14.95 69.25
SI 09:00:00 NR -15.14 69.06
SI 12:00:00 NR -15.32 68.88
SI 15:00:00 NR -15.49 68.72
SI 18:00:00 NR -15.65 68.56
SI 21:00:00 NR -15.82 68.43
SI 1885-02-23 00:00:00 NR -15.98 68.32
SI 03:00:00 NR -16.14 68.21
SI 06:00:00 NR -16.30 68.10
SI 09:00:00 NR -16.46 67.97
SI 12:00:00 NR -16.63 67.82
SI 15:00:00 NR -16.79 67.69
SI 18:00:00 NR -16.95 67.56
SI 21:00:00 NR -17.10 67.45
SI 1885-02-24 00:00:00 NR -17.25 67.34
SI 03:00:00 NR -17.40 67.25
SI 06:00:00 NR -17.55 67.15
SI 09:00:00 NR -17.71 67.05
SI 12:00:00 NR -17.87 66.95
SI 15:00:00 NR -18.04 66.85
SI 18:00:00 NR -18.21 66.75
SI 21:00:00 NR -18.38 66.64
SI 1885-02-25 00:00:00 NR -18.55 66.52
SI 03:00:00 NR -18.72 66.41
SI 06:00:00 NR -18.90 66.30
SI 09:00:00 NR -19.09 66.19
SI 12:00:00 NR -19.28 66.09
SI 15:00:00 NR -19.48 65.99
SI 18:00:00 NR -19.69 65.89
SI 21:00:00 NR -19.88 65.79
SI 1885-02-26 00:00:00 NR -20.09 65.69
SI 03:00:00 NR -20.29 65.59
SI 06:00:00 NR -20.50 65.50
SI 09:00:00 NR -20.71 65.42
SI 12:00:00 NR -20.93 65.34
SI 15:00:00 NR -21.14 65.26
SI 18:00:00 NR -21.35 65.19
SI 21:00:00 NR -21.54 65.11
SI 1885-02-27 00:00:00 NR -21.73 65.04
SI 03:00:00 NR -21.93 64.97
SI 06:00:00 NR -22.15 64.90
SI 09:00:00 NR -22.41 64.82
SI 12:00:00 NR -22.68 64.75
SI 15:00:00 NR -22.98 64.67
SI 18:00:00 NR -23.28 64.60
SI 21:00:00 NR -23.57 64.54
SI 1885-02-28 00:00:00 NR -23.87 64.47
SI 03:00:00 NR -24.15 64.41
SI 06:00:00 NR -24.42 64.34
SI 09:00:00 NR -24.65 64.27
SI 12:00:00 NR -24.89 64.26
SI 15:00:00 NR -25.11 64.25
SI 18:00:00 NR -25.32 64.25
SI 21:00:00 NR -25.53 64.26
SI 1885-03-01 00:00:00 NR -25.72 64.27
SI 03:00:00 NR -25.91 64.28
SI 06:00:00 NR -26.10 64.30

Source Information

Agency Information
USA
TOKYO
CMA
HKO
NEWDELHI
REUNION WMO-Best-Tracks.txt:Line=1407:xxxx885206
BOM
NADI
WELLINGTON
DS824
TD9636 cons_worldwide_trop_cyclone_18710101-19891231-005:Line=1895
TD9635
NEUMANN
MLC

All available IBTrACS Data

SEASON BASIN SUBBASIN ISO_TIME_________ NATURE LAT LON WMO AGENCY DIST2LAND LANDFALL IFLAG USA SSHS REUNION LAT REUNION LON REUNION TYPE REUNION TNUM TD9636 LAT TD9636 LON TD9636 STAGE STORM SPEED STORM DIR
Year degrees north degrees east km km 1 degrees north degrees east 1 degrees north degrees east kts degrees
1885 SI MM 1885-02-21 06:00:00 NR -13.60 70.40 reunion 1534 1519 _____O________ -1 -13.60 70.40 99 9.90 4 221
1885 SI MM 09:00:00 NR -13.76 70.26 1513 1489 _____P________ -1 -13.76 70.26 99 4 222
1885 SI MM 12:00:00 NR -13.92 70.11 1489 1468 _____P________ -1 -13.92 70.11 99 4 221
1885 SI MM 15:00:00 NR -14.07 69.97 1468 1454 _____P________ -1 -14.07 69.97 99 3 217
1885 SI MM 18:00:00 NR -14.17 69.92 1454 1439 _____P____O___ -1 -14.24 69.82 99 -13.90 70.30 7 3 213
1885 SI MM 21:00:00 NR -14.33 69.79 1439 1409 _____P____P___ -1 -14.40 69.67 99 -14.20 70.04 7 5 217
1885 SI MM 1885-02-22 00:00:00 NR -14.53 69.63 1409 1389 _____P____P___ -1 -14.56 69.52 99 -14.49 69.78 7 5 219
1885 SI MM 03:00:00 NR -14.74 69.45 1380 1359 _____P____P___ -1 -14.73 69.36 99 -14.76 69.53 7 6 221
1885 SI MM 06:00:00 NR -14.95 69.25 reunion 1359 1330 _____O____O___ -1 -14.90 69.20 99 9.90 -15.00 69.30 7 5 223
1885 SI MM 09:00:00 NR -15.14 69.06 1330 1301 _____P____P___ -1 -15.07 69.03 99 -15.21 69.09 7 5 224
1885 SI MM 12:00:00 NR -15.32 68.88 1301 1271 _____P____P___ -1 -15.25 68.87 99 -15.39 68.90 7 5 224
1885 SI MM 15:00:00 NR -15.49 68.72 1271 1257 _____P____P___ -1 -15.43 68.70 99 -15.55 68.73 7 5 223
1885 SI MM 18:00:00 NR -15.65 68.56 1252 1228 _____P____O___ -1 -15.61 68.53 99 -15.70 68.60 7 4 219
1885 SI MM 21:00:00 NR -15.82 68.43 1228 1208 _____P____P___ -1 -15.79 68.36 99 -15.85 68.51 7 4 216
1885 SI MM 1885-02-23 00:00:00 NR -15.98 68.32 1208 1194 _____P____P___ -1 -15.96 68.20 99 -16.00 68.44 7 4 214
1885 SI MM 03:00:00 NR -16.14 68.21 1194 1175 _____P____P___ -1 -16.13 68.05 99 -16.15 68.38 7 4 213
1885 SI MM 06:00:00 NR -16.30 68.10 reunion 1175 1156 _____O____O___ -1 -16.30 67.90 99 9.90 -16.30 68.30 7 4 216
1885 SI MM 09:00:00 NR -16.46 67.97 1156 1132 _____P____P___ -1 -16.46 67.77 99 -16.47 68.16 7 4 219
1885 SI MM 12:00:00 NR -16.63 67.82 1132 1114 _____P____P___ -1 -16.61 67.64 99 -16.65 68.01 7 4 219
1885 SI MM 15:00:00 NR -16.79 67.69 1114 1100 _____P____P___ -1 -16.76 67.52 99 -16.83 67.85 7 4 218
1885 SI MM 18:00:00 NR -16.95 67.56 1096 1082 _____P____O___ -1 -16.91 67.41 99 -17.00 67.70 7 4 217
1885 SI MM 21:00:00 NR -17.10 67.45 1072 1058 _____P____P___ -1 -17.05 67.30 99 -17.15 67.59 7 4 214
1885 SI MM 1885-02-24 00:00:00 NR -17.25 67.34 1054 1050 _____P____P___ -1 -17.20 67.20 99 -17.30 67.48 7 4 213
1885 SI MM 03:00:00 NR -17.40 67.25 1040 1037 _____P____P___ -1 -17.35 67.10 99 -17.45 67.39 7 4 212
1885 SI MM 06:00:00 NR -17.55 67.15 reunion 1037 1019 _____O____O___ -1 -17.50 67.00 99 9.90 -17.60 67.30 7 4 211
1885 SI MM 09:00:00 NR -17.71 67.05 1009 1003 _____P____P___ -1 -17.65 66.90 99 -17.77 67.20 7 4 210
1885 SI MM 12:00:00 NR -17.87 66.95 992 989 _____P____P___ -1 -17.81 66.79 99 -17.94 67.11 7 4 210
1885 SI MM 15:00:00 NR -18.04 66.85 979 973 _____P____P___ -1 -17.96 66.69 99 -18.12 67.01 7 4 210
1885 SI MM 18:00:00 NR -18.21 66.75 963 947 _____P____O___ -1 -18.12 66.59 99 -18.30 66.90 7 4 211
1885 SI MM 21:00:00 NR -18.38 66.64 947 934 _____P____P___ -1 -18.28 66.49 99 -18.47 66.78 7 4 212
1885 SI MM 1885-02-25 00:00:00 NR -18.55 66.52 934 918 _____P____P___ -1 -18.45 66.40 99 -18.64 66.65 7 4 212
1885 SI MM 03:00:00 NR -18.72 66.41 918 903 _____P____P___ -1 -18.62 66.30 99 -18.82 66.52 7 4 211
1885 SI MM 06:00:00 NR -18.90 66.30 reunion 903 889 _____O____O___ -1 -18.80 66.20 99 9.90 -19.00 66.40 7 4 209
1885 SI MM 09:00:00 NR -19.09 66.19 889 875 _____P____P___ -1 -18.98 66.10 99 -19.19 66.29 7 4 207
1885 SI MM 12:00:00 NR -19.28 66.09 875 861 _____P____P___ -1 -19.17 65.99 99 -19.39 66.19 7 4 205
1885 SI MM 15:00:00 NR -19.48 65.99 861 848 _____P____P___ -1 -19.37 65.89 99 -19.60 66.10 7 4 205
1885 SI MM 18:00:00 NR -19.69 65.89 848 836 _____P____O___ -1 -19.57 65.78 99 -19.80 66.00 7 4 205
1885 SI MM 21:00:00 NR -19.88 65.79 836 824 _____P____P___ -1 -19.77 65.68 99 -20.00 65.90 7 4 205
1885 SI MM 1885-02-26 00:00:00 NR -20.09 65.69 824 813 _____P____P___ -1 -19.98 65.59 99 -20.19 65.79 7 4 204
1885 SI MM 03:00:00 NR -20.29 65.59 813 802 _____P____P___ -1 -20.19 65.49 99 -20.39 65.69 7 5 203
1885 SI MM 06:00:00 NR -20.50 65.50 reunion 802 792 _____O____O___ -1 -20.40 65.40 99 9.90 -20.60 65.60 7 5 201
1885 SI MM 09:00:00 NR -20.71 65.42 792 783 _____P____P___ -1 -20.60 65.31 99 -20.83 65.52 7 5 200
1885 SI MM 12:00:00 NR -20.93 65.34 783 783 _____P____P___ -1 -20.79 65.23 99 -21.06 65.44 7 5 198
1885 SI MM 15:00:00 NR -21.14 65.26 785 775 _____P____P___ -1 -20.99 65.15 99 -21.29 65.37 7 4 198
1885 SI MM 18:00:00 NR -21.35 65.19 777 769 _____P____O___ -1 -21.20 65.08 99 -21.50 65.30 7 4 199
1885 SI MM 21:00:00 NR -21.54 65.11 769 763 _____P____P___ -1 -21.41 65.00 99 -21.67 65.22 7 4 200
1885 SI MM 1885-02-27 00:00:00 NR -21.73 65.04 763 763 _____P____P___ -1 -21.63 64.93 99 -21.83 65.15 7 4 198
1885 SI MM 03:00:00 NR -21.93 64.97 767 760 _____P____P___ -1 -21.86 64.87 99 -22.00 65.07 7 4 197
1885 SI MM 06:00:00 NR -22.15 64.90 reunion 762 758 _____O____O___ -1 -22.10 64.80 99 9.90 -22.20 65.00 7 5 196
1885 SI MM 09:00:00 NR -22.41 64.82 761 761 _____P____P___ -1 -22.37 64.72 99 -22.44 64.92 7 6 195
1885 SI MM 12:00:00 NR -22.68 64.75 762 762 _____P____P___ -1 -22.66 64.65 99 -22.71 64.84 7 6 193
1885 SI MM 15:00:00 NR -22.98 64.67 774 768 _____P____P___ -1 -22.95 64.57 99 -23.00 64.77 7 6 193
1885 SI MM 18:00:00 NR -23.28 64.60 777 776 _____P____O___ -1 -23.25 64.51 99 -23.30 64.70 7 6 191
1885 SI MM 21:00:00 NR -23.57 64.54 781 781 _____P____P___ -1 -23.55 64.44 99 -23.60 64.64 7 6 192
1885 SI MM 1885-02-28 00:00:00 NR -23.87 64.47 796 792 _____P____P___ -1 -23.84 64.39 99 -23.90 64.59 7 6 192
1885 SI MM 03:00:00 NR -24.15 64.41 803 803 _____P____P___ -1 -24.13 64.34 99 -24.20 64.54 7 6 192
1885 SI MM 06:00:00 NR -24.42 64.34 reunion 805 805 _____O____O___ -1 -24.40 64.30 99 9.90 -24.50 64.50 7 5 193
1885 SI MM 09:00:00 NR -24.65 64.27 823 823 _____P________ -1 -24.65 64.27 99 7 5 189
1885 SI MM 12:00:00 NR -24.89 64.26 836 836 _____P________ -1 -24.89 64.26 99 7 5 0
1885 SI MM 15:00:00 NR -25.11 64.25 849 849 _____P________ -1 -25.11 64.25 99 7 4 184
1885 SI MM 18:00:00 NR -25.32 64.25 862 862 _____P________ -1 -25.32 64.25 99 4 0
1885 SI MM 21:00:00 NR -25.53 64.26 876 876 _____P________ -1 -25.53 64.26 99 4 177
1885 SI MM 1885-03-01 00:00:00 NR -25.72 64.27 890 890 _____P________ -1 -25.72 64.27 99 4 177
1885 SI MM 03:00:00 NR -25.91 64.28 904 904 _____P________ -1 -25.91 64.28 99 4 0
1885 SI MM 06:00:00 NR -26.10 64.30 reunion 919 _____O________ -1 -26.10 64.30 99 9.90 4 172